sensor_id;sensor_type;location;lat;lon;timestamp;P1;durP1;ratioP1;P2;durP2;ratioP2
50301;SDS011;36550;50.472;19.744;2022-07-10T00:00:39;10.20;;;3.60;;
50301;SDS011;36550;50.472;19.744;2022-07-10T00:03:23;7.05;;;3.10;;
50301;SDS011;36550;50.472;19.744;2022-07-10T00:06:07;4.62;;;2.45;;
50301;SDS011;36550;50.472;19.744;2022-07-10T00:08:53;5.12;;;2.62;;
50301;SDS011;36550;50.472;19.744;2022-07-10T00:11:38;5.78;;;2.27;;
50301;SDS011;36550;50.472;19.744;2022-07-10T00:14:23;5.15;;;2.40;;
50301;SDS011;36550;50.472;19.744;2022-07-10T00:17:07;4.05;;;2.45;;
50301;SDS011;36550;50.472;19.744;2022-07-10T00:19:52;5.20;;;2.83;;
50301;SDS011;36550;50.472;19.744;2022-07-10T00:22:36;7.25;;;2.90;;
50301;SDS011;36550;50.472;19.744;2022-07-10T00:25:21;4.53;;;2.87;;
50301;SDS011;36550;50.472;19.744;2022-07-10T00:28:05;4.65;;;2.60;;
50301;SDS011;36550;50.472;19.744;2022-07-10T00:30:49;4.53;;;2.50;;
50301;SDS011;36550;50.472;19.744;2022-07-10T00:33:34;4.33;;;2.20;;
50301;SDS011;36550;50.472;19.744;2022-07-10T00:36:18;4.50;;;2.70;;
50301;SDS011;36550;50.472;19.744;2022-07-10T00:39:02;4.75;;;2.83;;
50301;SDS011;36550;50.472;19.744;2022-07-10T00:41:46;4.55;;;3.30;;
50301;SDS011;36550;50.472;19.744;2022-07-10T00:44:31;6.55;;;3.58;;
50301;SDS011;36550;50.472;19.744;2022-07-10T00:47:15;8.20;;;3.75;;
50301;SDS011;36550;50.472;19.744;2022-07-10T00:50:01;9.65;;;3.72;;
50301;SDS011;36550;50.472;19.744;2022-07-10T00:55:32;7.33;;;3.60;;
50301;SDS011;36550;50.472;19.744;2022-07-10T00:58:18;6.40;;;3.47;;
50301;SDS011;36550;50.472;19.744;2022-07-10T01:01:02;5.35;;;3.47;;
50301;SDS011;36550;50.472;19.744;2022-07-10T01:03:47;9.78;;;3.95;;
50301;SDS011;36550;50.472;19.744;2022-07-10T01:06:31;6.42;;;4.03;;
50301;SDS011;36550;50.472;19.744;2022-07-10T01:09:16;8.10;;;4.10;;
50301;SDS011;36550;50.472;19.744;2022-07-10T01:12:01;7.42;;;4.05;;
50301;SDS011;36550;50.472;19.744;2022-07-10T01:14:46;5.72;;;3.33;;
50301;SDS011;36550;50.472;19.744;2022-07-10T01:17:30;7.78;;;3.22;;
50301;SDS011;36550;50.472;19.744;2022-07-10T01:20:15;5.22;;;3.20;;
50301;SDS011;36550;50.472;19.744;2022-07-10T01:22:59;6.08;;;3.60;;
50301;SDS011;36550;50.472;19.744;2022-07-10T01:25:44;6.17;;;3.83;;
50301;SDS011;36550;50.472;19.744;2022-07-10T01:28:28;8.45;;;4.60;;
50301;SDS011;36550;50.472;19.744;2022-07-10T01:31:13;8.60;;;5.00;;
50301;SDS011;36550;50.472;19.744;2022-07-10T01:33:58;9.15;;;4.95;;
50301;SDS011;36550;50.472;19.744;2022-07-10T01:36:44;9.68;;;5.25;;
50301;SDS011;36550;50.472;19.744;2022-07-10T01:39:28;7.33;;;5.50;;
50301;SDS011;36550;50.472;19.744;2022-07-10T01:42:12;8.70;;;5.28;;
50301;SDS011;36550;50.472;19.744;2022-07-10T01:44:57;10.88;;;5.92;;
50301;SDS011;36550;50.472;19.744;2022-07-10T01:47:42;11.25;;;5.83;;
50301;SDS011;36550;50.472;19.744;2022-07-10T01:50:27;12.05;;;7.15;;
50301;SDS011;36550;50.472;19.744;2022-07-10T01:53:11;10.80;;;6.92;;
50301;SDS011;36550;50.472;19.744;2022-07-10T01:55:56;11.45;;;6.70;;
50301;SDS011;36550;50.472;19.744;2022-07-10T01:58:40;9.98;;;6.00;;
50301;SDS011;36550;50.472;19.744;2022-07-10T02:01:25;8.95;;;5.33;;
50301;SDS011;36550;50.472;19.744;2022-07-10T02:04:09;10.40;;;5.95;;
50301;SDS011;36550;50.472;19.744;2022-07-10T02:07:13;10.28;;;6.10;;
50301;SDS011;36550;50.472;19.744;2022-07-10T02:10:02;9.60;;;6.33;;
50301;SDS011;36550;50.472;19.744;2022-07-10T02:12:47;9.38;;;6.25;;
50301;SDS011;36550;50.472;19.744;2022-07-10T02:15:31;9.20;;;6.20;;
50301;SDS011;36550;50.472;19.744;2022-07-10T02:18:15;10.30;;;5.72;;
50301;SDS011;36550;50.472;19.744;2022-07-10T02:20:59;9.13;;;5.50;;
50301;SDS011;36550;50.472;19.744;2022-07-10T02:23:43;8.13;;;4.67;;
50301;SDS011;36550;50.472;19.744;2022-07-10T02:26:27;9.05;;;5.55;;
50301;SDS011;36550;50.472;19.744;2022-07-10T02:29:12;13.30;;;5.60;;
50301;SDS011;36550;50.472;19.744;2022-07-10T02:31:57;10.38;;;5.30;;
50301;SDS011;36550;50.472;19.744;2022-07-10T02:34:41;8.40;;;5.40;;
50301;SDS011;36550;50.472;19.744;2022-07-10T02:37:25;9.00;;;5.42;;
50301;SDS011;36550;50.472;19.744;2022-07-10T02:40:09;7.87;;;3.90;;
50301;SDS011;36550;50.472;19.744;2022-07-10T02:42:54;5.65;;;3.67;;
50301;SDS011;36550;50.472;19.744;2022-07-10T02:45:38;8.68;;;4.62;;
50301;SDS011;36550;50.472;19.744;2022-07-10T02:48:22;7.55;;;4.97;;
50301;SDS011;36550;50.472;19.744;2022-07-10T02:51:07;7.95;;;4.90;;
50301;SDS011;36550;50.472;19.744;2022-07-10T02:53:51;11.18;;;5.08;;
50301;SDS011;36550;50.472;19.744;2022-07-10T02:56:35;9.75;;;5.03;;
50301;SDS011;36550;50.472;19.744;2022-07-10T02:59:20;8.63;;;4.65;;
50301;SDS011;36550;50.472;19.744;2022-07-10T03:02:04;8.35;;;4.00;;
50301;SDS011;36550;50.472;19.744;2022-07-10T03:04:49;9.27;;;4.50;;
50301;SDS011;36550;50.472;19.744;2022-07-10T03:07:33;9.53;;;5.45;;
50301;SDS011;36550;50.472;19.744;2022-07-10T03:10:17;9.73;;;5.53;;
50301;SDS011;36550;50.472;19.744;2022-07-10T03:13:02;14.35;;;6.95;;
50301;SDS011;36550;50.472;19.744;2022-07-10T03:15:46;11.10;;;6.22;;
50301;SDS011;36550;50.472;19.744;2022-07-10T03:18:30;14.30;;;5.37;;
50301;SDS011;36550;50.472;19.744;2022-07-10T03:21:14;11.60;;;4.65;;
50301;SDS011;36550;50.472;19.744;2022-07-10T03:23:59;15.50;;;4.55;;
50301;SDS011;36550;50.472;19.744;2022-07-10T03:26:43;10.68;;;5.10;;
50301;SDS011;36550;50.472;19.744;2022-07-10T03:29:28;14.70;;;5.78;;
50301;SDS011;36550;50.472;19.744;2022-07-10T03:32:12;12.58;;;5.45;;
50301;SDS011;36550;50.472;19.744;2022-07-10T03:34:56;15.13;;;5.83;;
50301;SDS011;36550;50.472;19.744;2022-07-10T03:37:41;12.82;;;5.30;;
50301;SDS011;36550;50.472;19.744;2022-07-10T03:40:27;9.50;;;4.37;;
50301;SDS011;36550;50.472;19.744;2022-07-10T03:43:11;10.30;;;4.90;;
50301;SDS011;36550;50.472;19.744;2022-07-10T03:45:56;10.68;;;5.35;;
50301;SDS011;36550;50.472;19.744;2022-07-10T03:48:41;13.72;;;5.90;;
50301;SDS011;36550;50.472;19.744;2022-07-10T03:51:25;11.10;;;5.47;;
50301;SDS011;36550;50.472;19.744;2022-07-10T03:54:09;16.57;;;5.75;;
50301;SDS011;36550;50.472;19.744;2022-07-10T03:56:54;12.80;;;5.93;;
50301;SDS011;36550;50.472;19.744;2022-07-10T03:59:58;10.13;;;5.45;;
50301;SDS011;36550;50.472;19.744;2022-07-10T04:02:42;9.78;;;4.97;;
50301;SDS011;36550;50.472;19.744;2022-07-10T04:05:27;13.90;;;5.45;;
50301;SDS011;36550;50.472;19.744;2022-07-10T04:08:12;15.18;;;6.87;;
50301;SDS011;36550;50.472;19.744;2022-07-10T04:10:56;11.73;;;7.30;;
50301;SDS011;36550;50.472;19.744;2022-07-10T04:13:40;12.40;;;6.53;;
50301;SDS011;36550;50.472;19.744;2022-07-10T04:16:24;12.10;;;6.85;;
50301;SDS011;36550;50.472;19.744;2022-07-10T04:19:08;10.95;;;6.47;;
50301;SDS011;36550;50.472;19.744;2022-07-10T04:21:52;10.88;;;6.15;;
50301;SDS011;36550;50.472;19.744;2022-07-10T04:24:36;9.33;;;5.12;;
50301;SDS011;36550;50.472;19.744;2022-07-10T04:27:21;8.78;;;4.87;;
50301;SDS011;36550;50.472;19.744;2022-07-10T04:30:05;8.13;;;4.78;;
50301;SDS011;36550;50.472;19.744;2022-07-10T04:32:50;7.07;;;3.30;;
50301;SDS011;36550;50.472;19.744;2022-07-10T04:35:34;4.00;;;1.90;;
50301;SDS011;36550;50.472;19.744;2022-07-10T04:38:18;4.05;;;1.77;;
50301;SDS011;36550;50.472;19.744;2022-07-10T04:41:03;2.02;;;1.37;;
50301;SDS011;36550;50.472;19.744;2022-07-10T04:43:47;3.85;;;1.30;;
50301;SDS011;36550;50.472;19.744;2022-07-10T04:46:31;4.20;;;1.10;;
50301;SDS011;36550;50.472;19.744;2022-07-10T04:49:15;2.10;;;1.27;;
50301;SDS011;36550;50.472;19.744;2022-07-10T04:51:59;1.98;;;1.10;;
50301;SDS011;36550;50.472;19.744;2022-07-10T04:54:44;1.32;;;0.90;;
50301;SDS011;36550;50.472;19.744;2022-07-10T04:57:28;1.90;;;1.05;;
50301;SDS011;36550;50.472;19.744;2022-07-10T05:00:12;2.27;;;1.50;;
50301;SDS011;36550;50.472;19.744;2022-07-10T05:02:58;2.58;;;1.70;;
50301;SDS011;36550;50.472;19.744;2022-07-10T05:05:42;2.25;;;1.60;;
50301;SDS011;36550;50.472;19.744;2022-07-10T05:08:27;3.55;;;1.30;;
50301;SDS011;36550;50.472;19.744;2022-07-10T05:11:11;2.25;;;1.35;;
50301;SDS011;36550;50.472;19.744;2022-07-10T05:13:55;2.50;;;1.20;;
50301;SDS011;36550;50.472;19.744;2022-07-10T05:16:40;2.30;;;1.10;;
50301;SDS011;36550;50.472;19.744;2022-07-10T05:19:24;3.02;;;1.40;;
50301;SDS011;36550;50.472;19.744;2022-07-10T05:22:08;4.03;;;1.10;;
50301;SDS011;36550;50.472;19.744;2022-07-10T05:24:53;4.62;;;0.90;;
50301;SDS011;36550;50.472;19.744;2022-07-10T05:27:37;1.75;;;1.07;;
50301;SDS011;36550;50.472;19.744;2022-07-10T05:30:21;6.75;;;1.10;;
50301;SDS011;36550;50.472;19.744;2022-07-10T05:33:06;11.30;;;4.80;;
50301;SDS011;36550;50.472;19.744;2022-07-10T05:35:50;5.35;;;3.00;;
50301;SDS011;36550;50.472;19.744;2022-07-10T05:38:34;3.17;;;1.92;;
50301;SDS011;36550;50.472;19.744;2022-07-10T05:41:19;4.62;;;2.40;;
50301;SDS011;36550;50.472;19.744;2022-07-10T05:44:03;4.47;;;2.00;;
50301;SDS011;36550;50.472;19.744;2022-07-10T05:46:47;3.05;;;1.85;;
50301;SDS011;36550;50.472;19.744;2022-07-10T05:49:31;2.75;;;2.10;;
50301;SDS011;36550;50.472;19.744;2022-07-10T05:52:16;4.08;;;2.17;;
50301;SDS011;36550;50.472;19.744;2022-07-10T05:55:00;3.33;;;2.22;;
50301;SDS011;36550;50.472;19.744;2022-07-10T05:57:44;5.72;;;2.80;;
50301;SDS011;36550;50.472;19.744;2022-07-10T06:00:28;3.85;;;2.20;;
50301;SDS011;36550;50.472;19.744;2022-07-10T06:03:13;4.62;;;2.62;;
50301;SDS011;36550;50.472;19.744;2022-07-10T06:05:57;3.87;;;2.25;;
50301;SDS011;36550;50.472;19.744;2022-07-10T06:08:43;3.52;;;2.50;;
50301;SDS011;36550;50.472;19.744;2022-07-10T06:11:28;4.55;;;2.55;;
50301;SDS011;36550;50.472;19.744;2022-07-10T06:14:12;2.50;;;2.05;;
50301;SDS011;36550;50.472;19.744;2022-07-10T06:16:56;5.33;;;2.10;;
50301;SDS011;36550;50.472;19.744;2022-07-10T06:19:41;3.55;;;1.92;;
50301;SDS011;36550;50.472;19.744;2022-07-10T06:22:25;4.03;;;1.70;;
50301;SDS011;36550;50.472;19.744;2022-07-10T06:25:15;3.80;;;1.80;;
50301;SDS011;36550;50.472;19.744;2022-07-10T06:27:59;2.67;;;1.70;;
50301;SDS011;36550;50.472;19.744;2022-07-10T06:30:43;3.87;;;1.40;;
50301;SDS011;36550;50.472;19.744;2022-07-10T06:33:29;2.35;;;1.00;;
50301;SDS011;36550;50.472;19.744;2022-07-10T06:36:15;2.00;;;0.88;;
50301;SDS011;36550;50.472;19.744;2022-07-10T06:38:59;2.25;;;0.80;;
50301;SDS011;36550;50.472;19.744;2022-07-10T06:41:43;1.40;;;0.80;;
50301;SDS011;36550;50.472;19.744;2022-07-10T06:44:28;3.02;;;0.70;;
50301;SDS011;36550;50.472;19.744;2022-07-10T06:47:13;2.55;;;0.85;;
50301;SDS011;36550;50.472;19.744;2022-07-10T06:50:18;1.55;;;0.80;;
50301;SDS011;36550;50.472;19.744;2022-07-10T06:53:03;1.77;;;0.80;;
50301;SDS011;36550;50.472;19.744;2022-07-10T06:55:47;1.35;;;0.80;;
50301;SDS011;36550;50.472;19.744;2022-07-10T06:58:32;1.10;;;0.68;;
50301;SDS011;36550;50.472;19.744;2022-07-10T07:01:16;3.95;;;0.80;;
50301;SDS011;36550;50.472;19.744;2022-07-10T07:04:00;3.45;;;0.88;;
50301;SDS011;36550;50.472;19.744;2022-07-10T07:06:44;2.05;;;0.60;;
50301;SDS011;36550;50.472;19.744;2022-07-10T07:09:29;1.95;;;0.70;;
50301;SDS011;36550;50.472;19.744;2022-07-10T07:12:13;1.95;;;0.78;;
50301;SDS011;36550;50.472;19.744;2022-07-10T07:14:57;1.98;;;0.80;;
50301;SDS011;36550;50.472;19.744;2022-07-10T07:17:41;3.87;;;0.70;;
50301;SDS011;36550;50.472;19.744;2022-07-10T07:20:43;3.30;;;0.78;;
50301;SDS011;36550;50.472;19.744;2022-07-10T07:23:46;4.15;;;0.80;;
50301;SDS011;36550;50.472;19.744;2022-07-10T07:26:30;2.22;;;0.80;;
50301;SDS011;36550;50.472;19.744;2022-07-10T07:29:15;5.00;;;0.80;;
50301;SDS011;36550;50.472;19.744;2022-07-10T07:32:00;1.75;;;0.70;;
50301;SDS011;36550;50.472;19.744;2022-07-10T07:34:44;5.15;;;0.70;;
50301;SDS011;36550;50.472;19.744;2022-07-10T07:37:48;4.85;;;0.78;;
50301;SDS011;36550;50.472;19.744;2022-07-10T07:40:33;2.30;;;0.68;;
50301;SDS011;36550;50.472;19.744;2022-07-10T07:43:20;3.80;;;0.90;;
50301;SDS011;36550;50.472;19.744;2022-07-10T07:46:04;1.60;;;0.70;;
50301;SDS011;36550;50.472;19.744;2022-07-10T07:48:48;2.47;;;0.82;;
50301;SDS011;36550;50.472;19.744;2022-07-10T07:51:33;3.08;;;0.80;;
50301;SDS011;36550;50.472;19.744;2022-07-10T07:54:17;2.50;;;0.68;;
50301;SDS011;36550;50.472;19.744;2022-07-10T07:57:02;4.00;;;0.70;;
50301;SDS011;36550;50.472;19.744;2022-07-10T07:59:47;3.40;;;0.70;;
50301;SDS011;36550;50.472;19.744;2022-07-10T08:02:31;1.70;;;0.50;;
50301;SDS011;36550;50.472;19.744;2022-07-10T08:05:15;3.83;;;0.80;;
50301;SDS011;36550;50.472;19.744;2022-07-10T08:08:00;5.13;;;0.70;;
50301;SDS011;36550;50.472;19.744;2022-07-10T08:10:46;2.92;;;0.60;;
50301;SDS011;36550;50.472;19.744;2022-07-10T08:13:30;3.20;;;0.60;;
50301;SDS011;36550;50.472;19.744;2022-07-10T08:16:15;2.45;;;0.70;;
50301;SDS011;36550;50.472;19.744;2022-07-10T08:18:59;2.35;;;0.60;;
50301;SDS011;36550;50.472;19.744;2022-07-10T08:21:43;2.15;;;0.50;;
50301;SDS011;36550;50.472;19.744;2022-07-10T08:24:28;4.90;;;0.78;;
50301;SDS011;36550;50.472;19.744;2022-07-10T08:27:12;1.52;;;0.47;;
50301;SDS011;36550;50.472;19.744;2022-07-10T08:29:56;1.35;;;0.42;;
50301;SDS011;36550;50.472;19.744;2022-07-10T08:32:40;2.15;;;0.47;;
50301;SDS011;36550;50.472;19.744;2022-07-10T08:35:25;1.95;;;0.50;;
50301;SDS011;36550;50.472;19.744;2022-07-10T08:38:09;1.57;;;0.70;;
50301;SDS011;36550;50.472;19.744;2022-07-10T08:40:54;3.40;;;0.70;;
50301;SDS011;36550;50.472;19.744;2022-07-10T08:43:41;2.92;;;1.00;;
50301;SDS011;36550;50.472;19.744;2022-07-10T08:46:26;6.08;;;1.40;;
50301;SDS011;36550;50.472;19.744;2022-07-10T08:52:03;1.97;;;0.83;;
50301;SDS011;36550;50.472;19.744;2022-07-10T08:54:53;4.62;;;0.70;;
50301;SDS011;36550;50.472;19.744;2022-07-10T08:57:37;5.67;;;0.60;;
50301;SDS011;36550;50.472;19.744;2022-07-10T09:00:22;2.17;;;0.60;;
50301;SDS011;36550;50.472;19.744;2022-07-10T09:03:07;2.87;;;0.60;;
50301;SDS011;36550;50.472;19.744;2022-07-10T09:05:51;2.20;;;0.50;;
50301;SDS011;36550;50.472;19.744;2022-07-10T09:08:36;2.90;;;0.75;;
50301;SDS011;36550;50.472;19.744;2022-07-10T09:11:21;1.82;;;0.53;;
50301;SDS011;36550;50.472;19.744;2022-07-10T09:14:05;2.12;;;0.53;;
50301;SDS011;36550;50.472;19.744;2022-07-10T09:16:54;1.50;;;0.50;;
50301;SDS011;36550;50.472;19.744;2022-07-10T09:19:38;5.22;;;0.70;;
50301;SDS011;36550;50.472;19.744;2022-07-10T09:22:23;3.62;;;0.70;;
50301;SDS011;36550;50.472;19.744;2022-07-10T09:25:13;2.42;;;0.50;;
50301;SDS011;36550;50.472;19.744;2022-07-10T09:27:58;13.68;;;1.02;;
50301;SDS011;36550;50.472;19.744;2022-07-10T09:30:45;3.37;;;0.70;;
50301;SDS011;36550;50.472;19.744;2022-07-10T09:33:31;2.80;;;0.68;;
50301;SDS011;36550;50.472;19.744;2022-07-10T09:36:18;2.05;;;0.60;;
50301;SDS011;36550;50.472;19.744;2022-07-10T09:39:03;4.25;;;0.70;;
50301;SDS011;36550;50.472;19.744;2022-07-10T09:41:47;3.17;;;0.57;;
50301;SDS011;36550;50.472;19.744;2022-07-10T09:44:31;2.80;;;0.60;;
50301;SDS011;36550;50.472;19.744;2022-07-10T09:47:22;4.28;;;0.60;;
50301;SDS011;36550;50.472;19.744;2022-07-10T09:50:22;2.15;;;0.60;;
50301;SDS011;36550;50.472;19.744;2022-07-10T09:53:12;2.77;;;0.60;;
50301;SDS011;36550;50.472;19.744;2022-07-10T09:55:59;3.58;;;0.50;;
50301;SDS011;36550;50.472;19.744;2022-07-10T09:58:45;2.08;;;0.50;;
50301;SDS011;36550;50.472;19.744;2022-07-10T10:01:34;2.30;;;0.72;;
50301;SDS011;36550;50.472;19.744;2022-07-10T10:04:22;3.67;;;1.25;;
50301;SDS011;36550;50.472;19.744;2022-07-10T10:07:09;4.00;;;0.55;;
50301;SDS011;36550;50.472;19.744;2022-07-10T10:09:56;4.42;;;0.53;;
50301;SDS011;36550;50.472;19.744;2022-07-10T10:12:45;3.42;;;0.30;;
50301;SDS011;36550;50.472;19.744;2022-07-10T10:15:32;2.87;;;0.40;;
50301;SDS011;36550;50.472;19.744;2022-07-10T10:18:21;4.87;;;0.60;;
50301;SDS011;36550;50.472;19.744;2022-07-10T10:21:08;2.72;;;0.35;;
50301;SDS011;36550;50.472;19.744;2022-07-10T10:23:53;2.25;;;0.37;;
50301;SDS011;36550;50.472;19.744;2022-07-10T10:26:41;3.42;;;0.50;;
50301;SDS011;36550;50.472;19.744;2022-07-10T10:29:26;5.12;;;0.50;;
50301;SDS011;36550;50.472;19.744;2022-07-10T10:32:12;1.67;;;0.60;;
50301;SDS011;36550;50.472;19.744;2022-07-10T10:34:58;2.33;;;0.45;;
50301;SDS011;36550;50.472;19.744;2022-07-10T10:37:43;1.77;;;0.40;;
50301;SDS011;36550;50.472;19.744;2022-07-10T10:40:33;2.58;;;0.50;;
50301;SDS011;36550;50.472;19.744;2022-07-10T10:43:21;2.10;;;0.30;;
50301;SDS011;36550;50.472;19.744;2022-07-10T10:46:23;3.20;;;0.30;;
50301;SDS011;36550;50.472;19.744;2022-07-10T10:49:11;2.90;;;0.50;;
50301;SDS011;36550;50.472;19.744;2022-07-10T10:57:46;2.92;;;0.30;;
50301;SDS011;36550;50.472;19.744;2022-07-10T11:00:32;2.62;;;0.37;;
50301;SDS011;36550;50.472;19.744;2022-07-10T11:03:22;2.98;;;0.30;;
50301;SDS011;36550;50.472;19.744;2022-07-10T11:06:08;2.22;;;0.23;;
50301;SDS011;36550;50.472;19.744;2022-07-10T11:08:58;0.98;;;0.28;;
50301;SDS011;36550;50.472;19.744;2022-07-10T11:11:44;2.10;;;0.40;;
50301;SDS011;36550;50.472;19.744;2022-07-10T11:14:33;1.85;;;0.30;;
50301;SDS011;36550;50.472;19.744;2022-07-10T11:17:24;2.70;;;0.37;;
50301;SDS011;36550;50.472;19.744;2022-07-10T11:20:10;2.10;;;0.25;;
50301;SDS011;36550;50.472;19.744;2022-07-10T11:23:01;4.95;;;0.45;;
50301;SDS011;36550;50.472;19.744;2022-07-10T11:26:05;2.40;;;0.45;;
50301;SDS011;36550;50.472;19.744;2022-07-10T11:31:39;2.60;;;0.40;;
50301;SDS011;36550;50.472;19.744;2022-07-10T11:34:33;2.25;;;0.47;;
50301;SDS011;36550;50.472;19.744;2022-07-10T11:37:19;1.55;;;0.50;;
50301;SDS011;36550;50.472;19.744;2022-07-10T11:40:07;1.95;;;0.57;;
50301;SDS011;36550;50.472;19.744;2022-07-10T11:42:54;2.37;;;0.72;;
50301;SDS011;36550;50.472;19.744;2022-07-10T11:45:41;3.70;;;0.60;;
50301;SDS011;36550;50.472;19.744;2022-07-10T11:48:25;1.57;;;0.45;;
50301;SDS011;36550;50.472;19.744;2022-07-10T11:54:16;2.67;;;0.57;;
50301;SDS011;36550;50.472;19.744;2022-07-10T11:57:04;3.25;;;0.60;;
50301;SDS011;36550;50.472;19.744;2022-07-10T11:59:50;2.52;;;0.50;;
50301;SDS011;36550;50.472;19.744;2022-07-10T12:02:34;2.60;;;0.47;;
50301;SDS011;36550;50.472;19.744;2022-07-10T12:08:19;3.40;;;0.50;;
50301;SDS011;36550;50.472;19.744;2022-07-10T12:11:10;3.47;;;0.68;;
50301;SDS011;36550;50.472;19.744;2022-07-10T12:13:56;1.07;;;0.30;;
50301;SDS011;36550;50.472;19.744;2022-07-10T12:17:03;3.83;;;0.50;;
50301;SDS011;36550;50.472;19.744;2022-07-10T12:19:56;1.12;;;0.40;;
50301;SDS011;36550;50.472;19.744;2022-07-10T12:22:40;2.20;;;0.50;;
50301;SDS011;36550;50.472;19.744;2022-07-10T12:25:24;2.40;;;0.40;;
50301;SDS011;36550;50.472;19.744;2022-07-10T12:28:09;3.50;;;0.90;;
50301;SDS011;36550;50.472;19.744;2022-07-10T12:30:55;2.50;;;0.80;;
50301;SDS011;36550;50.472;19.744;2022-07-10T12:33:39;3.52;;;1.00;;
50301;SDS011;36550;50.472;19.744;2022-07-10T12:36:24;1.55;;;0.50;;
50301;SDS011;36550;50.472;19.744;2022-07-10T12:41:57;2.83;;;1.27;;
50301;SDS011;36550;50.472;19.744;2022-07-10T12:44:49;2.33;;;1.07;;
50301;SDS011;36550;50.472;19.744;2022-07-10T12:47:43;1.15;;;0.68;;
50301;SDS011;36550;50.472;19.744;2022-07-10T12:50:31;1.87;;;0.50;;
50301;SDS011;36550;50.472;19.744;2022-07-10T12:53:15;1.22;;;0.50;;
50301;SDS011;36550;50.472;19.744;2022-07-10T12:56:00;0.98;;;0.40;;
50301;SDS011;36550;50.472;19.744;2022-07-10T12:58:44;1.27;;;0.35;;
50301;SDS011;36550;50.472;19.744;2022-07-10T13:01:29;1.02;;;0.20;;
50301;SDS011;36550;50.472;19.744;2022-07-10T13:04:27;1.98;;;0.37;;
50301;SDS011;36550;50.472;19.744;2022-07-10T13:07:12;0.63;;;0.30;;
50301;SDS011;36550;50.472;19.744;2022-07-10T13:10:04;1.70;;;0.20;;
50301;SDS011;36550;50.472;19.744;2022-07-10T13:12:48;0.70;;;0.20;;
50301;SDS011;36550;50.472;19.744;2022-07-10T13:15:32;1.10;;;0.30;;
50301;SDS011;36550;50.472;19.744;2022-07-10T13:18:20;3.25;;;0.30;;
50301;SDS011;36550;50.472;19.744;2022-07-10T13:21:07;0.95;;;0.23;;
50301;SDS011;36550;50.472;19.744;2022-07-10T13:23:51;3.62;;;0.20;;
50301;SDS011;36550;50.472;19.744;2022-07-10T13:26:35;1.47;;;0.20;;
50301;SDS011;36550;50.472;19.744;2022-07-10T13:29:20;0.50;;;0.25;;
50301;SDS011;36550;50.472;19.744;2022-07-10T13:32:04;1.45;;;0.30;;
50301;SDS011;36550;50.472;19.744;2022-07-10T13:34:49;1.15;;;0.30;;
50301;SDS011;36550;50.472;19.744;2022-07-10T13:37:34;4.25;;;0.40;;
50301;SDS011;36550;50.472;19.744;2022-07-10T13:40:18;1.45;;;0.30;;
50301;SDS011;36550;50.472;19.744;2022-07-10T13:43:03;2.55;;;0.35;;
50301;SDS011;36550;50.472;19.744;2022-07-10T13:45:49;10.43;;;6.75;;
50301;SDS011;36550;50.472;19.744;2022-07-10T13:48:33;1.45;;;0.40;;
50301;SDS011;36550;50.472;19.744;2022-07-10T13:51:18;2.10;;;0.28;;
50301;SDS011;36550;50.472;19.744;2022-07-10T13:54:03;1.35;;;0.30;;
50301;SDS011;36550;50.472;19.744;2022-07-10T13:56:47;3.95;;;0.30;;
50301;SDS011;36550;50.472;19.744;2022-07-10T13:59:31;1.72;;;0.30;;
50301;SDS011;36550;50.472;19.744;2022-07-10T14:02:15;2.90;;;0.40;;
50301;SDS011;36550;50.472;19.744;2022-07-10T14:05:00;2.50;;;0.35;;
50301;SDS011;36550;50.472;19.744;2022-07-10T14:07:44;2.45;;;0.40;;
50301;SDS011;36550;50.472;19.744;2022-07-10T14:10:29;2.40;;;0.50;;
50301;SDS011;36550;50.472;19.744;2022-07-10T14:13:14;1.02;;;0.40;;
50301;SDS011;36550;50.472;19.744;2022-07-10T14:15:58;1.40;;;0.40;;
50301;SDS011;36550;50.472;19.744;2022-07-10T14:18:43;1.10;;;0.40;;
50301;SDS011;36550;50.472;19.744;2022-07-10T14:21:28;2.00;;;0.70;;
50301;SDS011;36550;50.472;19.744;2022-07-10T14:24:12;5.00;;;1.40;;
50301;SDS011;36550;50.472;19.744;2022-07-10T14:26:56;1.02;;;0.42;;
50301;SDS011;36550;50.472;19.744;2022-07-10T14:29:40;2.42;;;0.40;;
50301;SDS011;36550;50.472;19.744;2022-07-10T14:32:25;2.75;;;0.95;;
50301;SDS011;36550;50.472;19.744;2022-07-10T14:35:09;2.55;;;0.50;;
50301;SDS011;36550;50.472;19.744;2022-07-10T14:37:54;1.87;;;0.33;;
50301;SDS011;36550;50.472;19.744;2022-07-10T14:40:38;1.37;;;0.33;;
50301;SDS011;36550;50.472;19.744;2022-07-10T14:43:22;3.33;;;1.17;;
50301;SDS011;36550;50.472;19.744;2022-07-10T14:48:52;2.65;;;0.68;;
50301;SDS011;36550;50.472;19.744;2022-07-10T14:51:36;1.37;;;0.50;;
50301;SDS011;36550;50.472;19.744;2022-07-10T14:54:22;0.93;;;0.40;;
50301;SDS011;36550;50.472;19.744;2022-07-10T14:57:06;0.93;;;0.30;;
50301;SDS011;36550;50.472;19.744;2022-07-10T14:59:51;1.35;;;0.30;;
50301;SDS011;36550;50.472;19.744;2022-07-10T15:02:35;1.35;;;0.30;;
50301;SDS011;36550;50.472;19.744;2022-07-10T15:05:19;1.32;;;0.23;;
50301;SDS011;36550;50.472;19.744;2022-07-10T15:08:04;0.93;;;0.27;;
50301;SDS011;36550;50.472;19.744;2022-07-10T15:10:49;1.52;;;0.30;;
50301;SDS011;36550;50.472;19.744;2022-07-10T15:13:34;2.12;;;0.30;;
50301;SDS011;36550;50.472;19.744;2022-07-10T15:16:18;2.20;;;0.40;;
50301;SDS011;36550;50.472;19.744;2022-07-10T15:19:03;0.68;;;0.40;;
50301;SDS011;36550;50.472;19.744;2022-07-10T15:21:47;3.10;;;0.40;;
50301;SDS011;36550;50.472;19.744;2022-07-10T15:24:31;0.95;;;0.40;;
50301;SDS011;36550;50.472;19.744;2022-07-10T15:27:15;0.60;;;0.30;;
50301;SDS011;36550;50.472;19.744;2022-07-10T15:29:59;0.82;;;0.30;;
50301;SDS011;36550;50.472;19.744;2022-07-10T15:32:43;1.65;;;0.50;;
50301;SDS011;36550;50.472;19.744;2022-07-10T15:35:29;1.95;;;0.50;;
50301;SDS011;36550;50.472;19.744;2022-07-10T15:38:13;1.93;;;0.70;;
50301;SDS011;36550;50.472;19.744;2022-07-10T15:40:57;3.20;;;0.50;;
50301;SDS011;36550;50.472;19.744;2022-07-10T15:43:42;2.70;;;0.35;;
50301;SDS011;36550;50.472;19.744;2022-07-10T15:46:26;1.50;;;0.55;;
50301;SDS011;36550;50.472;19.744;2022-07-10T15:49:10;3.10;;;0.55;;
50301;SDS011;36550;50.472;19.744;2022-07-10T15:51:55;0.60;;;0.33;;
50301;SDS011;36550;50.472;19.744;2022-07-10T15:54:40;1.15;;;0.45;;
50301;SDS011;36550;50.472;19.744;2022-07-10T15:57:26;1.05;;;0.60;;
50301;SDS011;36550;50.472;19.744;2022-07-10T16:00:10;0.68;;;0.37;;
50301;SDS011;36550;50.472;19.744;2022-07-10T16:02:55;1.62;;;0.70;;
50301;SDS011;36550;50.472;19.744;2022-07-10T16:08:25;2.22;;;0.50;;
50301;SDS011;36550;50.472;19.744;2022-07-10T16:11:09;1.53;;;0.40;;
50301;SDS011;36550;50.472;19.744;2022-07-10T16:13:53;1.60;;;0.40;;
50301;SDS011;36550;50.472;19.744;2022-07-10T16:16:38;0.78;;;0.30;;
50301;SDS011;36550;50.472;19.744;2022-07-10T16:19:23;2.37;;;0.40;;
50301;SDS011;36550;50.472;19.744;2022-07-10T16:22:07;0.68;;;0.30;;
50301;SDS011;36550;50.472;19.744;2022-07-10T16:24:51;0.70;;;0.20;;
50301;SDS011;36550;50.472;19.744;2022-07-10T16:27:54;1.85;;;0.90;;
50301;SDS011;36550;50.472;19.744;2022-07-10T16:30:39;0.80;;;0.40;;
50301;SDS011;36550;50.472;19.744;2022-07-10T16:33:23;2.22;;;0.60;;
50301;SDS011;36550;50.472;19.744;2022-07-10T16:36:07;1.27;;;0.47;;
50301;SDS011;36550;50.472;19.744;2022-07-10T16:38:51;1.15;;;0.40;;
50301;SDS011;36550;50.472;19.744;2022-07-10T16:41:35;1.37;;;0.50;;
50301;SDS011;36550;50.472;19.744;2022-07-10T16:44:20;2.30;;;0.50;;
50301;SDS011;36550;50.472;19.744;2022-07-10T16:47:04;1.17;;;0.40;;
50301;SDS011;36550;50.472;19.744;2022-07-10T16:49:48;4.85;;;0.50;;